Terminal Aerodrome Forecast
Issued by NWS

Home | Current Version | Previous Version | Text Only | Print | Product List | Glossary On
Versions: 1 2 3 4 5 6 7 8 9 10 11 12 13
000
FTUS43 KLSX 151700
TAFCPS
TAF
KCPS 151736Z 1518/1618 32012G20KT P6SM SCT050
     FM160000 VRB03KT P6SM SKC
     FM160900 15005KT P6SM SKC
     FM161500 16015G25KT P6SM SCT250=

USA.gov is the U.S. government's official web portal to all federal, state and local government web resources and services.